createdAt,value
2022-11-24T00:01:17.855Z,8.50
2022-11-24T00:03:45.963Z,8.50
2022-11-24T00:06:15.479Z,8.40
2022-11-24T00:08:44.200Z,8.50
2022-11-24T00:11:16.395Z,8.50
2022-11-24T00:13:43.998Z,8.60
2022-11-24T00:16:19.703Z,8.70
2022-11-24T00:18:48.475Z,8.70
2022-11-24T00:21:16.667Z,8.70
2022-11-24T00:23:43.867Z,8.60
2022-11-24T00:26:13.895Z,8.60
2022-11-24T00:28:42.123Z,8.70
2022-11-24T00:31:39.845Z,8.40
2022-11-24T00:34:10.354Z,8.40
2022-11-24T00:36:38.209Z,8.50
2022-11-24T00:39:13.369Z,8.50
2022-11-24T00:41:40.672Z,8.20
2022-11-24T00:44:07.446Z,8.10
2022-11-24T00:46:34.591Z,7.90
2022-11-24T00:49:01.734Z,7.80
2022-11-24T00:51:30.295Z,7.90
2022-11-24T00:53:58.435Z,8.10
2022-11-24T00:56:26.342Z,8.10
2022-11-24T00:58:53.107Z,8.10
2022-11-24T01:01:22.822Z,7.90
2022-11-24T01:03:50.044Z,7.70
2022-11-24T01:06:19.252Z,7.60
2022-11-24T01:08:46.469Z,7.40
2022-11-24T01:11:26.320Z,7.20
2022-11-24T01:13:59.056Z,7.20
2022-11-24T01:16:31.767Z,7.00
2022-11-24T01:18:58.655Z,7.00
2022-11-24T01:21:25.783Z,7.00
2022-11-24T01:23:52.443Z,6.90
2022-11-24T01:26:22.382Z,6.90
2022-11-24T01:28:56.712Z,6.90
2022-11-24T01:31:24.650Z,7.10
2022-11-24T01:33:52.126Z,7.20
2022-11-24T01:36:19.321Z,7.40
2022-11-24T01:38:46.210Z,7.50
2022-11-24T01:41:14.736Z,7.70
2022-11-24T01:43:42.782Z,7.70
2022-11-24T01:46:19.426Z,7.80
2022-11-24T01:49:01.727Z,7.90
2022-11-24T01:51:32.702Z,7.90
2022-11-24T01:54:05.486Z,7.90
2022-11-24T01:56:35.091Z,7.80
2022-11-24T01:59:04.387Z,7.90
2022-11-24T02:01:32.415Z,7.90
2022-11-24T02:04:01.392Z,7.90
2022-11-24T02:06:30.834Z,7.90
2022-11-24T02:09:00.006Z,7.90
2022-11-24T02:11:33.236Z,7.70
2022-11-24T02:14:00.638Z,7.70
2022-11-24T02:16:27.467Z,7.80
2022-11-24T02:18:54.244Z,7.90
2022-11-24T02:21:21.286Z,7.90
2022-11-24T02:24:16.834Z,7.90
2022-11-24T02:26:47.182Z,7.90
2022-11-24T02:29:15.073Z,7.50
2022-11-24T02:31:49.210Z,7.20
2022-11-24T02:34:15.903Z,7.10
2022-11-24T02:36:42.587Z,7.20
2022-11-24T02:39:14.231Z,7.50
2022-11-24T02:41:49.778Z,7.50
2022-11-24T02:44:17.732Z,7.30
2022-11-24T02:46:44.440Z,7.10
2022-11-24T02:49:11.148Z,6.90
2022-11-24T02:51:38.161Z,6.80
2022-11-24T02:54:04.952Z,6.70
2022-11-24T02:56:31.601Z,6.60
2022-11-24T02:58:58.318Z,6.40
2022-11-24T03:01:24.993Z,6.30
2022-11-24T03:03:51.639Z,6.30
2022-11-24T03:06:18.343Z,6.20
2022-11-24T03:08:45.209Z,6.20
2022-11-24T03:11:12.122Z,6.20
2022-11-24T03:13:39.007Z,6.10
2022-11-24T03:16:09.575Z,6.20
2022-11-24T03:18:36.324Z,6.20
2022-11-24T03:21:03.107Z,6.20
2022-11-24T03:23:29.787Z,6.20
2022-11-24T03:26:10.740Z,6.20
2022-11-24T03:28:37.411Z,6.10
2022-11-24T03:31:04.508Z,6.10
2022-11-24T03:33:31.243Z,6.00
2022-11-24T03:35:58.066Z,5.90
2022-11-24T03:38:24.816Z,6.00
2022-11-24T03:40:51.694Z,5.90
2022-11-24T03:43:18.414Z,5.80
2022-11-24T03:45:49.134Z,5.90
2022-11-24T03:48:17.342Z,6.00
2022-11-24T03:50:44.607Z,6.00
2022-11-24T03:53:11.347Z,6.10
2022-11-24T03:55:38.272Z,6.00
2022-11-24T03:58:04.915Z,5.90
2022-11-24T04:00:31.770Z,5.80
2022-11-24T04:02:58.752Z,5.80
2022-11-24T04:05:25.392Z,5.70
2022-11-24T04:07:57.124Z,5.70
2022-11-24T04:10:24.687Z,5.70
2022-11-24T04:12:51.369Z,5.70
2022-11-24T04:15:19.641Z,5.70
2022-11-24T04:17:48.161Z,5.60
2022-11-24T04:20:15.661Z,5.60
2022-11-24T04:22:42.997Z,5.70
2022-11-24T04:25:11.186Z,5.60
2022-11-24T04:27:38.531Z,5.70
2022-11-24T04:30:07.329Z,5.80
2022-11-24T04:32:34.196Z,6.00
2022-11-24T04:35:00.855Z,6.20
2022-11-24T04:37:28.018Z,6.20
2022-11-24T04:39:55.355Z,6.20
2022-11-24T04:42:22.199Z,6.30
2022-11-24T04:44:48.898Z,6.20
2022-11-24T04:47:17.275Z,6.00
2022-11-24T04:49:44.042Z,5.80
2022-11-24T04:52:10.669Z,5.70
2022-11-24T04:54:37.324Z,5.80
2022-11-24T04:57:04.110Z,6.00
2022-11-24T04:59:30.838Z,6.20
2022-11-24T05:01:57.798Z,5.90
2022-11-24T05:04:24.565Z,6.10
2022-11-24T05:06:51.229Z,6.00
2022-11-24T05:09:18.295Z,5.80
2022-11-24T05:11:45.034Z,5.80
2022-11-24T05:14:11.823Z,5.80
2022-11-24T05:16:38.721Z,5.90
2022-11-24T05:19:05.484Z,5.90
2022-11-24T05:21:32.147Z,5.90
2022-11-24T05:23:58.958Z,5.80
2022-11-24T05:26:27.154Z,5.70
2022-11-24T05:28:54.254Z,5.60
2022-11-24T05:31:21.043Z,5.60
2022-11-24T05:33:47.771Z,5.60
2022-11-24T05:36:34.487Z,5.40
2022-11-24T05:39:01.575Z,5.40
2022-11-24T05:41:28.331Z,5.40
2022-11-24T05:43:55.081Z,5.40
2022-11-24T05:46:21.809Z,5.60
2022-11-24T05:48:48.698Z,5.80
2022-11-24T05:51:15.447Z,5.70
2022-11-24T05:53:42.128Z,5.60
2022-11-24T05:56:08.983Z,5.50
2022-11-24T05:58:35.737Z,5.40
2022-11-24T06:01:06.437Z,5.50
2022-11-24T06:03:33.267Z,5.60
2022-11-24T06:06:00.053Z,5.50
2022-11-24T06:08:30.863Z,5.50
2022-11-24T06:11:20.145Z,5.40
2022-11-24T06:13:48.622Z,5.50
2022-11-24T06:16:15.974Z,5.50
2022-11-24T06:18:42.885Z,5.60
2022-11-24T06:21:11.229Z,5.60
2022-11-24T06:23:39.362Z,5.70
2022-11-24T06:26:06.889Z,5.60
2022-11-24T06:28:33.636Z,5.50
2022-11-24T06:31:02.241Z,5.50
2022-11-24T06:33:33.564Z,5.50
2022-11-24T06:36:02.194Z,5.70
2022-11-24T06:38:29.159Z,5.70
2022-11-24T06:41:15.600Z,5.70
2022-11-24T06:43:42.529Z,5.60
2022-11-24T06:46:09.487Z,5.60
2022-11-24T06:48:36.426Z,5.50
2022-11-24T06:51:06.566Z,5.50
2022-11-24T06:53:37.825Z,5.60
2022-11-24T06:56:15.603Z,5.70
2022-11-24T06:58:45.759Z,5.70
2022-11-24T07:01:17.949Z,5.80
2022-11-24T07:03:45.492Z,5.90
2022-11-24T07:06:12.587Z,5.90
2022-11-24T07:08:39.362Z,5.80
2022-11-24T07:11:07.946Z,5.90
2022-11-24T07:13:35.354Z,5.80
2022-11-24T07:16:17.268Z,5.70
2022-11-24T07:18:45.283Z,5.70
2022-11-24T07:21:11.991Z,5.60
2022-11-24T07:23:38.973Z,5.80
2022-11-24T07:26:07.328Z,5.90
2022-11-24T07:28:36.553Z,6.10
2022-11-24T07:31:08.031Z,6.30
2022-11-24T07:33:35.530Z,6.40
2022-11-24T07:36:04.133Z,6.50
2022-11-24T07:38:31.906Z,6.60
2022-11-24T07:41:02.555Z,6.60
2022-11-24T07:43:31.370Z,6.60
2022-11-24T07:45:58.471Z,6.70
2022-11-24T07:48:25.303Z,6.60
2022-11-24T07:50:55.701Z,6.70
2022-11-24T07:53:23.158Z,6.60
2022-11-24T07:55:57.055Z,6.80
2022-11-24T07:58:27.572Z,6.90
2022-11-24T08:00:58.059Z,6.90
2022-11-24T08:03:25.387Z,7.00
2022-11-24T08:08:43.248Z,7.20
2022-11-24T08:11:13.355Z,7.30
2022-11-24T08:13:40.563Z,7.20
2022-11-24T08:16:12.179Z,7.20
2022-11-24T08:18:39.214Z,7.20
2022-11-24T08:21:07.134Z,7.40
2022-11-24T08:23:34.269Z,7.50
2022-11-24T08:26:09.224Z,7.60
2022-11-24T08:28:38.105Z,7.60
2022-11-24T08:31:11.302Z,7.70
2022-11-24T08:33:39.125Z,7.80
2022-11-24T08:36:11.451Z,7.80
2022-11-24T08:38:38.730Z,7.90
2022-11-24T08:41:07.835Z,7.90
2022-11-24T08:43:34.689Z,8.00
2022-11-24T08:46:09.379Z,8.00
2022-11-24T08:48:36.195Z,8.10
2022-11-24T08:51:12.554Z,8.10
2022-11-24T08:53:40.304Z,8.20
2022-11-24T08:56:08.665Z,8.30
2022-11-24T08:58:36.153Z,8.40
2022-11-24T09:01:17.115Z,8.50
2022-11-24T09:03:50.464Z,8.60
2022-11-24T09:06:19.470Z,8.70
2022-11-24T09:08:46.152Z,8.80
2022-11-24T09:11:14.367Z,8.90
2022-11-24T09:13:41.114Z,8.90
2022-11-24T09:16:13.863Z,8.90
2022-11-24T09:18:41.265Z,9.00
2022-11-24T09:21:13.871Z,9.00
2022-11-24T09:23:41.794Z,9.10
2022-11-24T09:26:13.980Z,9.10
2022-11-24T09:28:41.234Z,9.10
2022-11-24T09:31:10.901Z,9.10
2022-11-24T09:33:39.010Z,9.30
2022-11-24T09:36:06.626Z,9.50
2022-11-24T09:38:33.825Z,9.60
2022-11-24T09:41:26.877Z,9.70
2022-11-24T09:43:56.457Z,9.90
2022-11-24T09:46:49.797Z,9.90
2022-11-24T09:49:27.906Z,10.00
2022-11-24T09:51:57.044Z,10.00
2022-11-24T09:54:28.602Z,9.80
2022-11-24T09:56:59.936Z,10.10
2022-11-24T09:59:27.696Z,10.30
2022-11-24T10:01:55.761Z,10.30
2022-11-24T10:04:29.575Z,10.30
2022-11-24T10:07:12.615Z,10.50
2022-11-24T10:09:51.717Z,10.60
2022-11-24T10:13:00.979Z,10.60
2022-11-24T10:15:46.064Z,10.50
2022-11-24T10:18:57.380Z,10.30
2022-11-24T10:21:50.562Z,10.20
2022-11-24T10:24:45.060Z,10.10
2022-11-24T10:27:21.615Z,10.00
2022-11-24T10:29:55.296Z,10.20
2022-11-24T10:32:40.158Z,10.40
2022-11-24T10:35:19.903Z,10.40
2022-11-24T10:38:07.879Z,10.30
2022-11-24T10:41:05.668Z,10.50
2022-11-24T10:43:32.375Z,10.70
2022-11-24T10:46:19.826Z,10.70
2022-11-24T10:49:09.547Z,10.80
2022-11-24T10:52:13.109Z,10.90
2022-11-24T10:54:59.430Z,11.00
2022-11-24T10:57:33.427Z,11.10
2022-11-24T11:00:02.007Z,11.20
2022-11-24T11:02:34.126Z,11.30
2022-11-24T11:05:32.898Z,11.40
2022-11-24T11:08:32.366Z,11.50
2022-11-24T11:11:18.065Z,12.20
2022-11-24T11:14:03.481Z,14.60
2022-11-24T11:16:53.652Z,19.80
2022-11-24T11:19:58.410Z,25.00
2022-11-24T11:22:32.517Z,29.50
2022-11-24T11:25:11.433Z,32.80
2022-11-24T11:27:39.736Z,34.90
2022-11-24T11:36:13.293Z,37.70
2022-11-24T11:38:41.622Z,37.90
2022-11-24T11:41:17.103Z,38.20
2022-11-24T11:43:45.855Z,38.10
2022-11-24T11:46:16.368Z,37.50
2022-11-24T11:48:46.556Z,36.60
2022-11-24T11:51:44.475Z,34.10
2022-11-24T11:54:14.101Z,32.10
2022-11-24T11:56:51.387Z,31.20
2022-11-24T11:59:27.395Z,32.30
2022-11-24T12:02:18.770Z,31.60
2022-11-24T12:05:05.457Z,33.00
2022-11-24T12:08:11.553Z,33.90
2022-11-24T12:10:46.040Z,34.10
2022-11-24T12:13:43.329Z,35.10
2022-11-24T12:16:21.799Z,34.00
2022-11-24T12:19:19.948Z,32.90
2022-11-24T12:22:24.047Z,32.50
2022-11-24T12:25:23.632Z,32.10
2022-11-24T12:28:11.269Z,31.90
2022-11-24T12:30:53.468Z,31.50
2022-11-24T12:33:36.025Z,30.90
2022-11-24T12:36:19.882Z,31.10
2022-11-24T12:39:05.635Z,31.20
2022-11-24T12:41:43.064Z,31.00
2022-11-24T12:44:36.675Z,32.70
2022-11-24T12:47:21.777Z,32.10
2022-11-24T12:50:01.473Z,31.40
2022-11-24T12:52:58.772Z,31.10
2022-11-24T12:55:27.789Z,31.20
2022-11-24T12:58:17.932Z,31.50
2022-11-24T13:01:14.649Z,31.90
2022-11-24T13:04:04.543Z,31.40
2022-11-24T13:07:02.147Z,31.50
2022-11-24T13:09:28.951Z,31.20
2022-11-24T13:12:06.202Z,30.90
2022-11-24T13:14:37.282Z,31.30
2022-11-24T13:17:52.437Z,30.80
2022-11-24T13:20:21.107Z,31.20
2022-11-24T13:23:04.094Z,32.10
2022-11-24T13:25:33.642Z,33.20
2022-11-24T13:28:02.231Z,32.20
2022-11-24T13:30:34.963Z,31.20
2022-11-24T13:33:16.841Z,31.80
2022-11-24T13:36:02.077Z,31.30
2022-11-24T13:38:44.230Z,30.70
2022-11-24T13:41:32.495Z,30.20
2022-11-24T13:44:25.883Z,29.90
2022-11-24T13:47:05.136Z,29.50
2022-11-24T13:49:42.713Z,29.30
2022-11-24T13:52:35.948Z,29.00
2022-11-24T13:55:19.525Z,29.10
2022-11-24T13:57:54.995Z,29.40
2022-11-24T14:00:31.816Z,29.40
2022-11-24T14:03:12.535Z,29.10
2022-11-24T14:05:48.008Z,28.30
2022-11-24T14:08:41.166Z,26.30
2022-11-24T14:11:18.080Z,23.70
2022-11-24T14:13:44.864Z,21.80
2022-11-24T14:16:17.378Z,20.90
2022-11-24T14:18:49.222Z,20.20
2022-11-24T14:21:32.711Z,19.60
2022-11-24T14:24:29.804Z,18.90
2022-11-24T14:26:56.599Z,18.40
2022-11-24T14:29:24.755Z,18.00
2022-11-24T14:32:00.079Z,17.50
2022-11-24T14:34:32.094Z,17.10
2022-11-24T14:37:00.956Z,16.90
2022-11-24T14:39:28.681Z,16.70
2022-11-24T14:41:58.366Z,16.40
2022-11-24T14:44:45.338Z,16.30
2022-11-24T14:47:33.886Z,16.00
2022-11-24T14:50:14.271Z,15.70
2022-11-24T14:52:49.794Z,15.50
2022-11-24T14:55:30.288Z,15.60
2022-11-24T14:58:00.016Z,15.70
2022-11-24T15:00:32.325Z,15.90
2022-11-24T15:03:02.052Z,15.60
2022-11-24T15:05:53.621Z,15.20
2022-11-24T15:08:20.486Z,15.00
2022-11-24T15:10:47.497Z,14.80
2022-11-24T15:13:21.854Z,14.50
2022-11-24T15:15:56.359Z,14.30
2022-11-24T15:18:33.367Z,14.10
2022-11-24T15:21:00.057Z,13.90
2022-11-24T15:23:29.556Z,13.70
2022-11-24T15:25:57.498Z,13.60
2022-11-24T15:28:28.039Z,13.60
2022-11-24T15:31:01.151Z,13.50
2022-11-24T15:33:28.371Z,13.40
2022-11-24T15:35:55.535Z,13.30
2022-11-24T15:38:22.845Z,13.30
2022-11-24T15:40:55.413Z,13.20
2022-11-24T15:43:31.502Z,13.10
2022-11-24T15:45:59.288Z,13.00
2022-11-24T15:48:26.159Z,13.00
2022-11-24T15:50:54.108Z,12.80
2022-11-24T15:53:22.893Z,12.70
2022-11-24T15:55:50.375Z,12.50
2022-11-24T15:58:17.148Z,12.40
2022-11-24T16:00:44.876Z,12.30
2022-11-24T16:03:45.234Z,12.30
2022-11-24T16:05:58.879Z,12.20
2022-11-24T16:08:25.584Z,12.10
2022-11-24T16:10:52.289Z,12.00
2022-11-24T16:13:19.178Z,12.00
2022-11-24T16:15:46.732Z,12.00
2022-11-24T16:18:13.971Z,12.10
2022-11-24T16:20:41.396Z,12.00
2022-11-24T16:23:08.124Z,12.00
2022-11-24T16:25:34.976Z,11.80
2022-11-24T16:28:01.751Z,11.70
2022-11-24T16:30:28.463Z,11.60
2022-11-24T16:32:55.366Z,11.70
2022-11-24T16:35:22.081Z,11.80
2022-11-24T16:37:51.619Z,11.70
2022-11-24T16:40:18.411Z,11.50
2022-11-24T16:42:45.368Z,11.40
2022-11-24T16:45:13.330Z,11.30
2022-11-24T16:47:41.707Z,11.30
2022-11-24T16:50:11.197Z,11.20
2022-11-24T16:52:38.710Z,11.10
2022-11-24T16:55:07.080Z,11.00
2022-11-24T16:57:34.003Z,10.90
2022-11-24T17:00:00.764Z,10.90
2022-11-24T17:02:27.582Z,11.00
2022-11-24T17:04:54.607Z,11.00
2022-11-24T17:07:21.484Z,10.90
2022-11-24T17:09:49.190Z,10.80
2022-11-24T17:12:15.922Z,10.70
2022-11-24T17:14:44.328Z,10.60
2022-11-24T17:17:15.732Z,10.50
2022-11-24T17:19:43.690Z,10.50
2022-11-24T17:22:10.357Z,10.50
2022-11-24T17:24:37.199Z,10.50
2022-11-24T17:27:04.256Z,10.50
2022-11-24T17:29:31.004Z,10.60
2022-11-24T17:31:57.836Z,10.70
2022-11-24T17:34:24.676Z,10.70
2022-11-24T17:36:51.428Z,10.60
2022-11-24T17:39:23.224Z,10.40
2022-11-24T17:41:51.596Z,10.40
2022-11-24T17:44:18.341Z,10.30
2022-11-24T17:46:44.993Z,10.20
2022-11-24T17:49:13.192Z,10.20
2022-11-24T17:51:40.012Z,10.20
2022-11-24T17:54:31.144Z,10.20
2022-11-24T17:56:53.510Z,10.20
2022-11-24T17:59:20.270Z,10.10
2022-11-24T18:01:47.038Z,10.10
2022-11-24T18:04:13.878Z,10.10
2022-11-24T18:06:40.535Z,10.00
2022-11-24T18:09:07.374Z,9.90
2022-11-24T18:11:34.308Z,9.90
2022-11-24T18:14:03.509Z,9.80
2022-11-24T18:16:34.808Z,9.80
2022-11-24T18:19:11.602Z,9.80
2022-11-24T18:21:39.937Z,9.70
2022-11-24T18:24:11.058Z,9.70
2022-11-24T18:26:39.251Z,9.80
2022-11-24T18:29:06.061Z,9.80
2022-11-24T18:31:35.287Z,9.70
2022-11-24T18:34:04.166Z,9.70
2022-11-24T18:36:31.167Z,9.70
2022-11-24T18:39:02.025Z,9.60
2022-11-24T18:41:28.752Z,9.60
2022-11-24T18:43:55.451Z,9.70
2022-11-24T18:46:22.527Z,9.90
2022-11-24T18:48:51.428Z,9.80
2022-11-24T18:51:18.603Z,9.80
2022-11-24T18:53:46.399Z,9.70
2022-11-24T18:56:16.003Z,9.70
2022-11-24T18:58:43.665Z,9.90
2022-11-24T19:01:11.897Z,10.00
2022-11-24T19:03:48.683Z,10.20
2022-11-24T19:06:33.423Z,10.30
2022-11-24T19:09:05.670Z,10.20
2022-11-24T19:11:35.794Z,10.20
2022-11-24T19:14:04.196Z,10.00
2022-11-24T19:16:31.234Z,9.90
2022-11-24T19:19:00.200Z,9.90
2022-11-24T19:21:28.187Z,9.90
2022-11-24T19:23:58.533Z,10.00
2022-11-24T19:26:28.241Z,9.90
2022-11-24T19:28:55.128Z,9.80
2022-11-24T19:31:21.839Z,9.70
2022-11-24T19:33:48.599Z,9.50
2022-11-24T19:36:17.807Z,9.40
2022-11-24T19:38:52.962Z,9.40
2022-11-24T19:41:21.948Z,9.70
2022-11-24T19:43:48.936Z,9.70
2022-11-24T19:46:18.208Z,9.50
2022-11-24T19:48:54.172Z,9.40
2022-11-24T19:51:23.099Z,9.30
2022-11-24T19:53:49.806Z,9.10
2022-11-24T19:56:19.274Z,9.10
2022-11-24T19:58:47.226Z,9.00
2022-11-24T20:01:22.261Z,9.00
2022-11-24T20:04:04.659Z,8.90
2022-11-24T20:06:34.591Z,8.80
2022-11-24T20:09:01.795Z,8.90
2022-11-24T20:11:29.671Z,8.90
2022-11-24T20:13:57.847Z,9.00
2022-11-24T20:16:30.524Z,9.10
2022-11-24T20:18:59.717Z,9.00
2022-11-24T20:21:28.742Z,8.90
2022-11-24T20:24:01.498Z,8.80
2022-11-24T20:26:38.390Z,8.90
2022-11-24T20:29:06.605Z,8.80
2022-11-24T20:31:35.863Z,8.80
2022-11-24T20:34:04.325Z,8.70
2022-11-24T20:36:32.837Z,8.70
2022-11-24T20:39:01.472Z,8.70
2022-11-24T20:41:31.602Z,8.70
2022-11-24T20:44:00.839Z,8.70
2022-11-24T20:46:30.385Z,8.70
2022-11-24T20:48:58.199Z,8.60
2022-11-24T20:51:31.368Z,8.80
2022-11-24T20:54:01.192Z,8.80
2022-11-24T20:56:30.762Z,8.70
2022-11-24T20:58:58.306Z,8.70
2022-11-24T21:01:31.261Z,8.60
2022-11-24T21:03:59.598Z,8.70
2022-11-24T21:06:27.945Z,8.70
2022-11-24T21:09:00.402Z,8.60
2022-11-24T21:11:30.238Z,8.70
2022-11-24T21:13:57.195Z,8.80
2022-11-24T21:16:25.714Z,9.00
2022-11-24T21:18:57.704Z,8.90
2022-11-24T21:21:26.153Z,8.80
2022-11-24T21:23:52.968Z,8.70
2022-11-24T21:26:20.041Z,8.80
2022-11-24T21:28:47.477Z,8.70
2022-11-24T21:31:20.055Z,8.70
2022-11-24T21:33:49.066Z,8.70
2022-11-24T21:36:18.679Z,8.70
2022-11-24T21:38:51.322Z,8.80
2022-11-24T21:41:18.404Z,8.80
2022-11-24T21:43:45.393Z,8.90
2022-11-24T21:46:13.271Z,8.90
2022-11-24T21:48:41.772Z,8.90
2022-11-24T21:51:20.600Z,8.80
2022-11-24T21:53:47.855Z,8.80
2022-11-24T21:56:17.007Z,8.80
2022-11-24T21:58:50.595Z,8.80
2022-11-24T22:01:19.943Z,8.90
2022-11-24T22:03:46.862Z,8.90
2022-11-24T22:06:14.391Z,9.00
2022-11-24T22:08:41.222Z,9.10
2022-11-24T22:11:16.694Z,9.10
2022-11-24T22:13:44.103Z,9.10
2022-11-24T22:16:21.568Z,9.10
2022-11-24T22:18:48.878Z,9.30
2022-11-24T22:21:22.430Z,9.30
2022-11-24T22:23:52.431Z,9.30
2022-11-24T22:26:21.883Z,9.30
2022-11-24T22:28:48.880Z,9.20
2022-11-24T22:31:21.342Z,9.10
2022-11-24T22:33:49.012Z,9.00
2022-11-24T22:36:16.896Z,9.00
2022-11-24T22:38:43.978Z,8.90
2022-11-24T22:41:15.055Z,8.80
2022-11-24T22:43:42.937Z,8.70
2022-11-24T22:46:30.511Z,8.70
2022-11-24T22:48:59.746Z,8.70
2022-11-24T22:51:32.494Z,8.70
2022-11-24T22:54:01.885Z,8.60
2022-11-24T22:56:32.060Z,8.60
2022-11-24T22:58:59.849Z,8.60
2022-11-24T23:01:27.801Z,8.60
2022-11-24T23:03:54.853Z,8.60
2022-11-24T23:06:26.742Z,8.50
2022-11-24T23:08:54.494Z,8.50
2022-11-24T23:11:30.704Z,8.50
2022-11-24T23:14:03.344Z,8.50
2022-11-24T23:16:30.688Z,8.50
2022-11-24T23:18:57.883Z,8.50
2022-11-24T23:21:27.836Z,8.50
2022-11-24T23:23:55.246Z,8.50
2022-11-24T23:38:21.457Z,8.40
2022-11-24T23:40:48.135Z,8.30
2022-11-24T23:43:14.889Z,8.20
2022-11-24T23:45:41.685Z,8.10
2022-11-24T23:48:08.553Z,8.20
2022-11-24T23:50:35.547Z,8.10
2022-11-24T23:53:02.306Z,8.10
2022-11-24T23:55:29.066Z,8.10
2022-11-24T23:57:55.828Z,8.10
